Time;durP1;ratioP1;P1;durP2;ratioP2;P2;SDS_P1;SDS_P2;PMS_P1;PMS_P2;Temp;Humidity;BMP_temperature;BMP_pressure;BME280_temperature;BME280_humidity;BME280_pressure;Samples;Min_cycle;Max_cycle;Signal;HPM_P1;HPM_P2
2021/08/25 00:01:33;;;;;;;13.60;7.38;;;;;;;19.76;65.86;97316.66;5042583;28;20055;-77
2021/08/25 00:03:59;;;;;;;12.00;7.68;;;;;;;19.66;66.66;97311.31;5054332;28;20039;-75
2021/08/25 00:06:25;;;;;;;17.02;8.23;;;;;;;19.62;66.28;97315.38;5055513;28;20025;-75
2021/08/25 00:08:50;;;;;;;17.77;7.75;;;;;;;19.68;66.43;97317.44;5052059;28;20573;-75
2021/08/25 00:11:16;;;;;;;17.75;7.38;;;;;;;19.67;66.21;97315.72;5052147;28;20021;-75
2021/08/25 00:13:42;;;;;;;19.27;8.15;;;;;;;19.53;66.66;97304.59;5048453;28;20076;-75
2021/08/25 00:16:07;;;;;;;11.85;7.35;;;;;;;19.54;66.91;97309.84;5033473;28;20017;-75
2021/08/25 00:18:33;;;;;;;10.38;7.32;;;;;;;19.38;67.65;97315.13;5033106;28;20021;-75
2021/08/25 00:20:59;;;;;;;13.43;8.00;;;;;;;19.32;67.82;97299.44;5050317;28;20033;-75
2021/08/25 00:23:25;;;;;;;14.48;8.23;;;;;;;19.34;68.14;97313.72;5051813;28;20399;-75
2021/08/25 00:25:53;;;;;;;13.73;7.32;;;;;;;19.39;68.15;97316.81;5051231;28;20120;-74
2021/08/25 00:28:22;;;;;;;15.27;7.95;;;;;;;19.32;68.90;97311.13;5051775;28;20025;-75
2021/08/25 00:30:48;;;;;;;10.40;7.50;;;;;;;19.29;69.34;97297.03;5051568;28;20094;-75
2021/08/25 00:33:14;;;;;;;10.70;8.00;;;;;;;19.27;69.41;97299.06;5052698;28;20064;-75
2021/08/25 00:35:40;;;;;;;13.90;7.50;;;;;;;19.29;69.81;97294.31;5051389;28;20029;-75
2021/08/25 00:38:05;;;;;;;27.33;8.15;;;;;;;19.31;69.79;97295.03;5048185;28;20029;-75
2021/08/25 00:40:31;;;;;;;13.88;8.85;;;;;;;19.26;70.11;97300.06;5031356;28;20022;-75
2021/08/25 00:43:10;;;;;;;11.63;8.63;;;;;;;19.25;70.41;97301.09;5050508;28;20033;-75
2021/08/25 00:45:42;;;;;;;11.70;8.23;;;;;;;19.28;70.08;97303.47;5052407;28;20032;-75
2021/08/25 00:48:12;;;;;;;13.98;8.57;;;;;;;19.23;69.91;97294.94;5052453;28;20446;-75
2021/08/25 00:50:38;;;;;;;15.32;8.38;;;;;;;19.23;70.03;97300.38;5047950;28;20044;-74
2021/08/25 00:53:08;;;;;;;17.05;8.00;;;;;;;19.32;70.77;97294.00;5031124;28;20025;-75
2021/08/25 00:55:41;;;;;;;11.32;8.52;;;;;;;19.34;70.87;97294.72;5036332;28;20029;-75
2021/08/25 00:58:07;;;;;;;11.40;8.07;;;;;;;19.33;70.94;97287.59;5050932;28;20025;-75
2021/08/25 01:00:48;;;;;;;12.52;8.25;;;;;;;19.51;70.80;97288.44;5034273;28;20447;-75
2021/08/25 01:03:19;;;;;;;13.05;8.60;;;;;;;19.48;71.41;97288.78;5052155;28;20024;-75
2021/08/25 01:05:47;;;;;;;11.60;8.80;;;;;;;19.51;72.22;97277.59;5047680;28;20029;-75
2021/08/25 01:08:14;;;;;;;11.73;8.30;;;;;;;19.56;71.67;97271.72;5014197;28;20489;-75
2021/08/25 01:10:40;;;;;;;14.45;9.30;;;;;;;19.57;72.07;97266.13;5032332;28;20033;-75
2021/08/25 01:13:08;;;;;;;14.45;9.15;;;;;;;19.60;72.33;97264.94;5030725;28;20033;-74
2021/08/25 01:15:41;;;;;;;14.05;8.95;;;;;;;19.58;72.61;97267.84;5016662;28;20029;-75
2021/08/25 01:18:17;;;;;;;14.13;8.35;;;;;;;19.55;70.75;97276.28;5030806;28;20028;-75
2021/08/25 01:20:44;;;;;;;18.35;8.10;;;;;;;19.42;69.88;97267.69;5034333;28;20056;-75
2021/08/25 01:23:12;;;;;;;14.07;8.10;;;;;;;19.29;69.62;97267.19;5030813;28;20029;-75
2021/08/25 01:25:37;;;;;;;15.10;8.68;;;;;;;18.99;70.52;97254.88;5030796;28;20026;-74
2021/08/25 01:28:07;;;;;;;16.80;8.90;;;;;;;18.83;70.94;97255.56;5024880;28;20029;-75
2021/08/25 01:30:34;;;;;;;17.02;9.18;;;;;;;18.81;71.20;97263.00;5051643;28;20032;-75
2021/08/25 01:33:00;;;;;;;16.38;10.27;;;;;;;18.64;70.91;97247.56;5067879;28;20060;-75
2021/08/25 01:35:42;;;;;;;16.20;10.05;;;;;;;18.60;71.30;97248.88;5051347;28;20523;-75
2021/08/25 01:38:37;;;;;;;36.78;10.45;;;;;;;18.55;71.34;97244.94;5047065;28;20125;-74
2021/08/25 01:41:03;;;;;;;21.08;9.85;;;;;;;18.47;71.78;97261.03;5023687;28;20041;-75
2021/08/25 01:43:29;;;;;;;18.48;9.20;;;;;;;18.39;71.98;97259.94;5033986;28;20045;-75
2021/08/25 01:45:55;;;;;;;12.70;9.05;;;;;;;18.35;72.16;97263.09;5050524;28;20025;-75
2021/08/25 01:48:21;;;;;;;16.63;9.10;;;;;;;18.21;72.78;97253.59;5033678;28;20037;-74
2021/08/25 01:50:47;;;;;;;11.57;9.40;;;;;;;18.18;73.35;97245.78;5051814;28;20032;-74
2021/08/25 01:53:14;;;;;;;28.42;9.68;;;;;;;18.25;73.43;97246.91;5050444;28;20028;-75
2021/08/25 01:55:40;;;;;;;16.45;9.38;;;;;;;18.17;74.15;97240.53;5050487;28;20032;-75
2021/08/25 01:58:06;;;;;;;15.65;9.77;;;;;;;18.10;75.19;97242.13;5051456;28;20039;-75
2021/08/25 02:00:31;;;;;;;15.75;9.30;;;;;;;18.09;74.98;97222.31;5047168;28;20447;-75
2021/08/25 02:02:57;;;;;;;15.70;9.20;;;;;;;18.19;74.92;97239.38;5013934;28;20055;-75
2021/08/25 02:05:23;;;;;;;13.20;9.43;;;;;;;18.03;75.64;97211.22;5031789;28;20025;-75
2021/08/25 02:07:48;;;;;;;19.48;9.80;;;;;;;18.10;75.75;97217.75;5033421;28;20477;-75
2021/08/25 02:10:14;;;;;;;12.88;9.50;;;;;;;18.02;75.71;97204.13;5073851;28;20507;-75
2021/08/25 02:12:39;;;;;;;15.50;9.77;;;;;;;18.13;75.84;97214.75;5075679;28;20036;-77
2021/08/25 02:15:06;;;;;;;21.15;10.35;;;;;;;18.03;76.29;97203.09;5054215;28;20039;-75
2021/08/25 02:17:31;;;;;;;17.17;10.25;;;;;;;18.02;76.12;97188.75;5021166;28;20045;-75
2021/08/25 02:19:57;;;;;;;14.45;10.23;;;;;;;17.96;76.43;97193.91;5063144;28;20522;-75
2021/08/25 02:22:22;;;;;;;17.73;9.63;;;;;;;18.08;76.16;97198.97;5075113;28;20131;-75
2021/08/25 02:24:48;;;;;;;24.25;9.23;;;;;;;18.15;76.02;97207.34;5057920;28;20112;-75
2021/08/25 02:27:13;;;;;;;16.20;9.68;;;;;;;18.20;75.68;97214.00;5057530;28;20048;-74
2021/08/25 02:29:39;;;;;;;16.27;9.80;;;;;;;18.15;76.17;97220.88;5058376;28;20487;-74
2021/08/25 02:32:04;;;;;;;16.27;9.82;;;;;;;18.04;76.33;97221.06;5057634;28;20474;-75
2021/08/25 02:34:30;;;;;;;15.10;9.77;;;;;;;18.00;76.95;97219.66;5055306;28;20051;-75
2021/08/25 02:36:56;;;;;;;14.93;10.00;;;;;;;18.04;76.40;97219.22;5057136;28;20538;-77
2021/08/25 02:39:21;;;;;;;30.98;14.27;;;;;;;18.04;76.13;97212.94;5058922;28;20089;-74
2021/08/25 02:41:47;;;;;;;27.08;12.45;;;;;;;17.90;76.62;97208.88;5076504;28;20035;-75
2021/08/25 02:44:12;;;;;;;15.70;10.18;;;;;;;18.01;76.21;97222.22;5076679;28;20025;-76
2021/08/25 02:46:38;;;;;;;25.58;10.43;;;;;;;17.97;76.64;97223.50;5060841;28;20036;-77
2021/08/25 02:49:03;;;;;;;17.25;10.45;;;;;;;17.90;76.90;97227.81;5059014;28;20412;-75
2021/08/25 02:51:29;;;;;;;21.10;10.30;;;;;;;17.90;77.01;97229.69;5055268;28;20028;-75
2021/08/25 02:53:54;;;;;;;19.67;10.27;;;;;;;17.79;77.43;97236.97;5055973;28;20056;-74
2021/08/25 02:56:20;;;;;;;16.02;10.20;;;;;;;17.73;78.08;97236.69;5056943;28;20048;-74
2021/08/25 02:58:45;;;;;;;15.40;10.13;;;;;;;17.71;78.05;97223.34;5058006;28;20028;-75
2021/08/25 03:01:11;;;;;;;27.63;13.38;;;;;;;17.87;77.30;97233.53;5057539;28;20024;-75
2021/08/25 03:03:37;;;;;;;25.48;15.23;;;;;;;17.97;77.07;97241.59;5075788;28;20029;-75
2021/08/25 03:06:02;;;;;;;25.25;12.48;;;;;;;17.95;77.22;97247.16;5057411;28;20035;-75
2021/08/25 03:08:28;;;;;;;17.65;10.13;;;;;;;18.06;77.07;97251.53;5058070;28;20049;-77
2021/08/25 03:10:53;;;;;;;16.67;10.55;;;;;;;17.98;77.71;97256.84;5058395;28;20024;-75
2021/08/25 03:13:19;;;;;;;17.95;10.88;;;;;;;18.01;77.53;97268.22;5055943;28;20044;-78
2021/08/25 03:16:03;;;;;;;25.15;11.75;;;;;;;17.76;78.78;97252.63;5039010;28;20035;-78
2021/08/25 03:18:29;;;;;;;19.38;10.48;;;;;;;17.98;78.02;97273.94;5054650;28;20028;-75
2021/08/25 03:20:54;;;;;;;18.50;10.60;;;;;;;18.07;77.62;97272.19;5074569;28;20036;-76
2021/08/25 03:23:20;;;;;;;19.85;10.18;;;;;;;18.10;77.28;97261.94;5055851;28;20403;-75
2021/08/25 03:25:45;;;;;;;15.93;9.82;;;;;;;18.29;76.58;97288.06;5073666;28;20021;-76
2021/08/25 03:28:12;;;;;;;18.85;10.40;;;;;;;18.31;76.71;97280.63;5055589;28;20105;-76
2021/08/25 03:30:38;;;;;;;15.50;10.07;;;;;;;18.27;77.71;97290.91;5074691;28;20044;-76
2021/08/25 03:33:07;;;;;;;22.77;10.77;;;;;;;18.26;77.79;97283.81;5037218;28;20072;-76
2021/08/25 03:35:33;;;;;;;19.52;9.88;;;;;;;18.17;77.90;97273.03;5057357;28;20110;-75
2021/08/25 03:37:59;;;;;;;19.17;10.70;;;;;;;18.19;77.81;97279.97;5056085;28;20475;-75
2021/08/25 03:40:25;;;;;;;19.42;10.65;;;;;;;18.17;78.03;97279.28;5058736;28;20029;-75
2021/08/25 03:42:50;;;;;;;20.05;9.82;;;;;;;18.11;78.51;97287.16;5060665;28;20059;-75
2021/08/25 03:45:16;;;;;;;17.40;10.57;;;;;;;18.15;78.15;97302.09;5059998;28;20375;-76
2021/08/25 03:47:41;;;;;;;19.60;10.45;;;;;;;18.06;77.83;97275.88;5060785;28;20109;-78
2021/08/25 03:50:07;;;;;;;17.98;10.73;;;;;;;18.26;77.53;97283.81;5078794;28;20475;-75
2021/08/25 03:52:33;;;;;;;12.95;9.63;;;;;;;18.36;76.97;97278.34;5059978;28;20062;-76
2021/08/25 03:54:59;;;;;;;17.48;10.32;;;;;;;18.47;76.87;97297.09;5079269;28;20107;-75
2021/08/25 03:57:24;;;;;;;15.80;9.38;;;;;;;18.54;76.96;97292.84;5060647;28;20494;-76
2021/08/25 03:59:50;;;;;;;18.38;10.45;;;;;;;18.54;77.13;97297.41;5056629;28;20089;-76
2021/08/25 04:02:16;;;;;;;20.30;10.10;;;;;;;18.46;77.79;97284.56;5053952;28;20105;-76
2021/08/25 04:04:41;;;;;;;18.90;10.02;;;;;;;18.54;77.71;97287.41;5043849;28;20047;-75
2021/08/25 04:07:07;;;;;;;26.75;10.88;;;;;;;18.57;77.07;97276.28;5079056;28;20472;-76
2021/08/25 04:09:32;;;;;;;20.00;10.38;;;;;;;18.68;77.47;97291.47;5058462;28;20089;-76
2021/08/25 04:11:58;;;;;;;25.60;10.73;;;;;;;18.58;78.20;97275.25;5043333;28;20021;-75
2021/08/25 04:14:23;;;;;;;16.08;10.55;;;;;;;18.71;77.17;97278.47;5077752;28;20024;-77
2021/08/25 04:16:49;;;;;;;19.02;10.60;;;;;;;18.80;78.27;97265.84;5080250;28;20024;-77
2021/08/25 04:19:14;;;;;;;19.02;10.88;;;;;;;18.78;78.56;97274.16;5046363;28;20066;-76
2021/08/25 04:21:40;;;;;;;20.42;11.32;;;;;;;18.77;78.14;97267.03;5087768;28;20128;-76
2021/08/25 04:24:06;;;;;;;21.23;10.80;;;;;;;18.81;78.50;97262.16;5053811;28;20484;-76
2021/08/25 04:26:31;;;;;;;22.83;11.27;;;;;;;18.98;78.77;97253.16;5050524;28;20088;-76
2021/08/25 04:29:00;;;;;;;23.60;12.65;;;;;;;18.87;78.73;97235.28;5051273;28;20025;-77
2021/08/25 04:31:25;;;;;;;21.63;11.38;;;;;;;19.08;77.49;97253.09;5047000;28;20025;-75
2021/08/25 04:33:51;;;;;;;20.48;10.95;;;;;;;19.10;77.67;97235.69;5053866;28;20056;-76
2021/08/25 04:36:16;;;;;;;19.50;11.15;;;;;;;19.12;76.53;97238.22;5049598;28;20020;-75
2021/08/25 04:38:42;;;;;;;20.02;10.68;;;;;;;19.20;76.10;97246.44;5085460;28;20033;-77
2021/08/25 04:41:10;;;;;;;47.17;12.75;;;;;;;19.24;76.57;97239.69;5054589;28;20028;-85
2021/08/25 04:43:35;;;;;;;33.35;12.00;;;;;;;18.93;78.70;97225.69;5033648;28;20086;-82
2021/08/25 04:46:01;;;;;;;25.35;12.27;;;;;;;19.15;77.98;97262.31;5033848;28;20033;-82
2021/08/25 04:48:26;;;;;;;23.63;11.98;;;;;;;19.14;77.44;97257.91;5068692;28;20025;-77
2021/08/25 04:50:52;;;;;;;29.38;12.25;;;;;;;19.16;77.22;97232.34;5072867;28;20024;-77
2021/08/25 04:53:18;;;;;;;24.25;12.43;;;;;;;19.23;77.40;97235.28;5052827;28;20021;-77
2021/08/25 04:55:43;;;;;;;19.90;11.35;;;;;;;19.25;76.39;97207.00;5037955;28;20017;-76
2021/08/25 04:58:09;;;;;;;33.45;22.45;;;;;;;19.38;75.78;97222.88;5055516;28;20051;-77
2021/08/25 05:00:35;;;;;;;25.05;13.32;;;;;;;19.39;76.24;97216.44;5051857;28;20048;-76
2021/08/25 05:03:00;;;;;;;24.33;11.98;;;;;;;19.54;75.99;97212.16;5050968;28;20381;-76
2021/08/25 05:05:26;;;;;;;18.10;11.38;;;;;;;19.69;75.88;97207.00;5050485;28;20028;-78
2021/08/25 05:08:10;;;;;;;33.25;12.27;;;;;;;19.86;75.47;97200.69;5053962;28;20476;-76
2021/08/25 05:10:35;;;;;;;18.08;10.73;;;;;;;19.72;77.33;97185.81;5072545;28;20476;-76
2021/08/25 05:13:01;;;;;;;20.90;11.60;;;;;;;19.62;78.25;97171.53;5072160;28;20024;-75
2021/08/25 05:15:26;;;;;;;28.63;12.52;;;;;;;19.70;78.12;97151.72;5037087;28;20036;-75
2021/08/25 05:17:52;;;;;;;25.52;11.90;;;;;;;19.86;77.90;97151.81;5053610;28;20028;-77
2021/08/25 05:20:18;;;;;;;22.35;11.25;;;;;;;19.91;77.85;97154.88;5071887;28;20028;-77
2021/08/25 05:22:43;;;;;;;30.48;17.00;;;;;;;19.96;77.72;97153.38;5053495;28;20033;-76
2021/08/25 05:25:09;;;;;;;27.83;14.90;;;;;;;19.90;78.04;97164.06;5071710;28;20472;-76
2021/08/25 05:27:34;;;;;;;23.23;13.60;;;;;;;20.02;77.94;97163.63;5071557;28;20478;-76
2021/08/25 05:30:00;;;;;;;19.63;12.15;;;;;;;20.20;76.83;97158.06;5071427;28;20032;-75
2021/08/25 05:32:25;;;;;;;40.45;16.20;;;;;;;20.39;75.63;97159.69;5050294;28;20056;-77
2021/08/25 05:34:51;;;;;;;19.08;13.85;;;;;;;20.55;74.96;97170.59;5070657;28;20039;-77
2021/08/25 05:37:17;;;;;;;35.22;21.45;;;;;;;20.87;73.29;97181.53;5050284;28;20021;-75
2021/08/25 05:39:42;;;;;;;32.15;15.13;;;;;;;21.06;72.23;97183.97;5060973;28;20473;-75
2021/08/25 05:42:08;;;;;;;46.72;25.70;;;;;;;21.29;71.19;97191.44;5036368;28;20024;-77
2021/08/25 05:44:33;;;;;;;21.48;13.65;;;;;;;21.16;70.63;97191.13;5053439;28;20059;-76
2021/08/25 05:46:59;;;;;;;32.47;16.45;;;;;;;21.08;70.94;97200.97;5071148;28;20024;-75
2021/08/25 05:49:24;;;;;;;42.45;18.70;;;;;;;20.90;71.71;97192.09;5053536;28;20032;-75
2021/08/25 05:51:50;;;;;;;28.80;13.13;;;;;;;20.67;72.01;97187.47;5071192;28;20033;-75
2021/08/25 05:54:15;;;;;;;22.52;13.63;;;;;;;20.39;73.13;97178.72;5053575;28;20024;-78
2021/08/25 05:56:41;;;;;;;26.45;12.90;;;;;;;20.35;73.37;97185.50;5071063;28;20500;-77
2021/08/25 05:59:07;;;;;;;22.30;12.55;;;;;;;20.14;74.18;97188.59;5053292;28;20038;-77
2021/08/25 06:01:32;;;;;;;24.08;12.95;;;;;;;20.28;74.16;97200.72;5033429;28;20040;-77
2021/08/25 06:03:58;;;;;;;22.98;13.05;;;;;;;20.34;74.17;97208.22;5033239;28;20099;-77
2021/08/25 06:06:31;;;;;;;45.42;15.85;;;;;;;20.37;73.35;97186.16;5065938;28;20399;-77
2021/08/25 06:08:57;;;;;;;42.80;25.85;;;;;;;20.69;72.24;97205.31;5052442;28;20646;-77
2021/08/25 06:11:23;;;;;;;33.20;18.77;;;;;;;20.95;71.11;97197.84;5049983;28;20052;-75
2021/08/25 06:13:48;;;;;;;42.78;13.63;;;;;;;21.17;70.11;97211.84;5060704;28;20118;-76
2021/08/25 06:16:14;;;;;;;24.75;12.52;;;;;;;21.64;68.09;97207.44;5071195;28;20107;-76
2021/08/25 06:18:39;;;;;;;29.08;14.70;;;;;;;23.40;61.25;97208.75;5071143;28;20028;-76
2021/08/25 06:21:05;;;;;;;20.80;12.30;;;;;;;25.46;53.75;97218.59;5053057;28;20032;-75
2021/08/25 06:23:31;;;;;;;21.75;11.98;;;;;;;27.16;48.27;97228.03;5053366;28;20028;-76
2021/08/25 06:25:56;;;;;;;71.05;16.77;;;;;;;26.76;48.29;97240.69;5070744;28;20411;-78
2021/08/25 06:28:22;;;;;;;25.30;12.95;;;;;;;26.61;48.75;97245.47;5071083;28;20405;-74
2021/08/25 06:30:47;;;;;;;217.18;27.63;;;;;;;27.96;45.40;97233.44;5036293;28;20098;-74
2021/08/25 06:33:13;;;;;;;541.33;60.85;;;;;;;27.87;45.04;97247.63;5053165;28;20449;-75
2021/08/25 06:35:38;;;;;;;276.70;33.80;;;;;;;27.53;45.83;97245.91;5053294;28;20392;-75
2021/08/25 06:38:04;;;;;;;132.07;20.48;;;;;;;27.17;46.04;97246.19;5070734;28;20115;-74
2021/08/25 06:40:32;;;;;;;60.85;14.05;;;;;;;28.08;44.51;97225.44;5052697;28;20027;-75
2021/08/25 06:42:57;;;;;;;166.65;24.90;;;;;;;29.87;40.97;97219.06;5070706;28;20553;-75
2021/08/25 06:45:23;;;;;;;90.85;16.65;;;;;;;31.44;38.23;97225.63;5053084;28;20029;-75
2021/08/25 06:47:48;;;;;;;25.17;11.68;;;;;;;32.11;36.83;97218.06;5052811;28;20031;-75
2021/08/25 06:50:14;;;;;;;31.05;12.27;;;;;;;32.32;36.16;97209.16;5071030;28;20036;-75
2021/08/25 06:52:40;;;;;;;16.38;10.25;;;;;;;33.55;34.01;97206.03;5071033;28;20032;-77
2021/08/25 06:55:05;;;;;;;11.98;10.23;;;;;;;34.53;32.64;97202.78;5055438;28;20032;-78
2021/08/25 06:57:31;;;;;;;16.77;10.93;;;;;;;34.91;31.75;97202.81;5053255;28;20017;-77
2021/08/25 06:59:56;;;;;;;73.30;19.40;;;;;;;35.44;30.75;97202.09;5054572;28;20503;-77
2021/08/25 07:02:22;;;;;;;31.30;12.43;;;;;;;35.32;30.70;97198.59;5067819;28;20021;-78
2021/08/25 07:04:47;;;;;;;29.70;10.90;;;;;;;36.27;29.72;97186.81;5074139;28;20074;-78
2021/08/25 07:07:13;;;;;;;20.13;10.50;;;;;;;36.69;28.81;97179.31;5074245;28;20031;-78
2021/08/25 07:09:39;;;;;;;16.90;8.93;;;;;;;36.80;28.54;97172.69;5052972;28;20063;-76
2021/08/25 07:12:05;;;;;;;12.35;9.23;;;;;;;35.81;30.24;97179.94;5038649;28;20099;-77
2021/08/25 07:14:31;;;;;;;18.50;9.35;;;;;;;35.69;29.80;97174.56;5056319;28;20021;-77
2021/08/25 07:16:57;;;;;;;15.90;12.27;;;;;;;34.91;30.52;97168.59;5056099;28;20100;-76
2021/08/25 07:19:22;;;;;;;22.60;12.93;;;;;;;35.03;31.03;97183.22;5073970;28;20525;-77
2021/08/25 07:21:48;;;;;;;14.13;8.57;;;;;;;35.87;29.35;97174.16;5056094;28;20105;-77
2021/08/25 07:24:13;;;;;;;13.18;9.27;;;;;;;36.11;28.81;97168.28;5047768;28;20048;-75
2021/08/25 07:26:39;;;;;;;17.77;11.50;;;;;;;34.48;31.27;97172.97;5073829;28;20476;-75
2021/08/25 07:29:05;;;;;;;18.17;12.15;;;;;;;35.12;31.19;97185.31;5073715;28;20036;-76
2021/08/25 07:31:30;;;;;;;18.90;9.35;;;;;;;36.19;29.52;97177.00;5073877;28;20044;-76
2021/08/25 07:33:56;;;;;;;29.48;10.63;;;;;;;34.33;31.24;97180.25;5039275;28;20033;-75
2021/08/25 07:36:21;;;;;;;18.70;10.25;;;;;;;33.65;32.71;97187.69;5073717;28;20024;-75
2021/08/25 07:38:47;;;;;;;14.63;9.73;;;;;;;35.09;31.01;97187.78;5052546;28;20025;-75
2021/08/25 07:41:13;;;;;;;16.65;9.75;;;;;;;35.24;30.64;97188.78;5038493;28;20089;-77
2021/08/25 07:43:38;;;;;;;16.20;10.40;;;;;;;35.78;30.12;97191.63;5055866;28;20064;-78
2021/08/25 07:46:04;;;;;;;18.42;10.32;;;;;;;34.49;31.75;97191.31;5056304;28;20024;-78
2021/08/25 07:48:29;;;;;;;16.20;9.48;;;;;;;35.47;30.68;97200.75;5057797;28;20024;-77
2021/08/25 07:50:55;;;;;;;9.70;8.25;;;;;;;36.04;28.72;97187.13;5052207;28;20029;-78
2021/08/25 07:53:20;;;;;;;22.55;18.27;;;;;;;35.66;29.19;97177.03;5073251;28;20487;-75
2021/08/25 07:55:46;;;;;;;24.33;14.00;;;;;;;34.09;31.70;97194.28;5052051;28;20071;-78
2021/08/25 07:58:13;;;;;;;12.52;9.02;;;;;;;35.42;30.01;97182.03;5037484;28;20036;-77
2021/08/25 08:00:38;;;;;;;17.42;9.98;;;;;;;34.94;30.66;97190.31;5055644;28;20442;-78
2021/08/25 08:03:04;;;;;;;13.40;8.88;;;;;;;36.56;28.39;97174.22;5073292;28;20029;-77
2021/08/25 08:05:29;;;;;;;15.35;8.88;;;;;;;36.03;29.29;97160.38;5034729;28;20071;-77
2021/08/25 08:07:56;;;;;;;16.35;9.27;;;;;;;33.86;31.79;97177.78;5051411;28;20391;-77
2021/08/25 08:10:22;;;;;;;15.30;9.48;;;;;;;33.56;32.61;97171.66;5072724;28;20024;-77
2021/08/25 08:12:47;;;;;;;20.63;17.00;;;;;;;35.08;31.08;97170.19;5055080;28;20549;-77
2021/08/25 08:15:14;;;;;;;21.10;16.05;;;;;;;35.38;29.97;97156.66;5054988;28;20052;-77
2021/08/25 08:17:42;;;;;;;12.63;8.32;;;;;;;36.99;27.71;97147.97;5054843;28;20029;-77
2021/08/25 08:20:08;;;;;;;14.35;8.40;;;;;;;38.03;26.25;97135.66;5055358;28;20032;-77
2021/08/25 08:22:34;;;;;;;11.13;7.95;;;;;;;38.19;26.08;97126.16;5054722;28;20085;-74
2021/08/25 08:25:00;;;;;;;17.38;9.25;;;;;;;39.00;24.73;97135.25;5035004;28;20102;-74
2021/08/25 08:27:25;;;;;;;11.80;8.60;;;;;;;40.22;23.60;97124.13;5054764;28;20511;-74
2021/08/25 08:29:51;;;;;;;14.05;7.22;;;;;;;41.04;23.00;97123.03;5054965;28;20078;-75
2021/08/25 08:32:16;;;;;;;16.17;7.75;;;;;;;40.00;23.00;97117.00;5072405;28;20048;-75
2021/08/25 08:34:42;;;;;;;16.45;7.63;;;;;;;40.49;23.01;97107.59;5072519;28;20025;-75
2021/08/25 08:37:07;;;;;;;8.18;6.50;;;;;;;40.10;22.26;97092.84;5072671;28;20043;-76
2021/08/25 08:39:33;;;;;;;14.50;6.60;;;;;;;39.45;23.41;97103.41;5072711;28;20036;-75
2021/08/25 08:41:59;;;;;;;34.80;8.90;;;;;;;36.58;26.44;97102.28;5051202;28;20029;-75
2021/08/25 08:44:26;;;;;;;30.00;7.55;;;;;;;38.18;24.76;97118.91;5072376;28;20419;-76
2021/08/25 08:46:51;;;;;;;13.85;7.45;;;;;;;37.78;24.91;97106.59;5035176;28;20038;-76
2021/08/25 08:49:17;;;;;;;10.40;6.70;;;;;;;38.68;24.22;97109.59;5037225;28;20029;-76
2021/08/25 08:51:43;;;;;;;10.65;6.78;;;;;;;39.02;23.34;97105.84;5072541;28;20031;-75
2021/08/25 08:54:09;;;;;;;10.15;7.20;;;;;;;38.27;23.91;97098.47;5071070;28;20103;-76
2021/08/25 08:56:35;;;;;;;11.30;7.30;;;;;;;37.48;25.42;97089.81;5051472;28;20060;-76
2021/08/25 08:59:01;;;;;;;10.98;7.22;;;;;;;37.04;25.72;97091.38;5050892;28;20497;-76
2021/08/25 09:01:30;;;;;;;17.67;6.90;;;;;;;36.95;25.67;97093.78;5054750;28;20116;-77
2021/08/25 09:03:56;;;;;;;8.23;6.40;;;;;;;37.62;24.60;97071.41;5051272;28;20028;-77
2021/08/25 09:06:43;;;;;;;10.20;6.97;;;;;;;37.43;25.18;97073.03;5035561;28;20091;-76
2021/08/25 09:09:09;;;;;;;8.25;6.50;;;;;;;35.52;27.39;97079.16;5050310;28;20077;-76
2021/08/25 09:11:47;;;;;;;9.20;7.03;;;;;;;36.48;26.53;97079.91;5050739;28;20114;-76
2021/08/25 09:14:13;;;;;;;11.40;6.43;;;;;;;38.52;23.68;97086.41;5048277;28;20396;-76
2021/08/25 09:16:38;;;;;;;9.32;6.47;;;;;;;38.01;24.22;97071.69;5050916;28;20032;-76
2021/08/25 09:19:14;;;;;;;8.85;5.90;;;;;;;38.65;23.47;97071.84;5051646;28;20028;-76
2021/08/25 09:21:44;;;;;;;13.70;6.50;;;;;;;37.19;24.97;97069.94;5043452;28;20108;-76
2021/08/25 09:24:10;;;;;;;7.70;6.13;;;;;;;35.84;27.21;97068.03;5047519;28;20522;-76
2021/08/25 09:26:38;;;;;;;16.27;6.72;;;;;;;36.40;26.33;97060.91;5050741;28;20456;-76
2021/08/25 09:29:19;;;;;;;8.00;6.75;;;;;;;37.63;25.03;97070.28;5051923;28;20029;-76
2021/08/25 09:31:49;;;;;;;6.28;5.32;;;;;;;39.17;23.17;97060.13;5040910;28;20581;-77
2021/08/25 09:34:32;;;;;;;6.72;6.07;;;;;;;41.41;20.93;97061.28;5047964;28;20037;-77
2021/08/25 09:37:04;;;;;;;8.15;5.65;;;;;;;41.93;19.82;97060.19;5067375;28;20067;-77
2021/08/25 09:39:30;;;;;;;10.00;6.20;;;;;;;42.38;19.41;97057.72;5051372;28;20036;-76
2021/08/25 09:41:56;;;;;;;12.27;5.75;;;;;;;41.96;20.37;97055.94;5051690;28;20485;-77
2021/08/25 09:44:22;;;;;;;7.57;5.80;;;;;;;41.50;20.46;97053.03;5050239;28;20029;-77
2021/08/25 09:46:51;;;;;;;6.95;6.03;;;;;;;40.80;20.79;97044.41;5051473;28;20450;-78
2021/08/25 09:49:17;;;;;;;7.95;5.53;;;;;;;40.47;21.91;97053.75;5050120;28;20029;-78
2021/08/25 09:51:42;;;;;;;15.60;5.85;;;;;;;38.35;23.79;97046.78;5050031;28;20466;-78
2021/08/25 09:54:10;;;;;;;23.52;6.18;;;;;;;38.34;23.34;97054.28;5030158;28;20029;-78
2021/08/25 09:56:38;;;;;;;11.18;5.90;;;;;;;37.20;24.32;97034.47;5049856;28;20400;-77
2021/08/25 09:59:05;;;;;;;9.82;5.93;;;;;;;36.64;25.48;97044.63;5051204;28;20021;-78
2021/08/25 10:01:31;;;;;;;27.17;7.18;;;;;;;35.99;26.20;97043.09;5049996;28;20032;-78
2021/08/25 10:03:57;;;;;;;92.78;8.65;;;;;;;35.01;27.10;97038.03;5050036;28;20021;-76
2021/08/25 10:06:24;;;;;;;70.45;8.35;;;;;;;34.94;27.69;97048.50;5049790;28;20074;-77
2021/08/25 10:08:50;;;;;;;19.67;6.00;;;;;;;34.83;27.03;97051.16;5059753;28;20044;-77
2021/08/25 10:11:30;;;;;;;18.48;5.43;;;;;;;34.08;27.93;97041.81;5052985;28;20506;-78
2021/08/25 10:13:57;;;;;;;12.18;5.95;;;;;;;33.52;28.98;97052.00;5053255;28;20021;-78
2021/08/25 10:16:42;;;;;;;9.88;6.10;;;;;;;33.36;29.51;97054.75;5052991;28;20059;-76
2021/08/25 10:19:41;;;;;;;11.38;6.10;;;;;;;33.54;30.03;97058.13;5052984;28;20071;-78
2021/08/25 10:22:10;;;;;;;106.60;10.90;;;;;;;35.42;28.51;97058.75;5049756;28;20111;-79
2021/08/25 10:24:54;;;;;;;13.30;6.68;;;;;;;36.27;27.68;97055.84;5070778;28;20033;-78
2021/08/25 10:27:25;;;;;;;15.10;6.25;;;;;;;36.82;27.41;97050.53;5050178;28;20040;-78
2021/08/25 10:30:03;;;;;;;9.50;6.67;;;;;;;37.62;26.51;97043.47;5053978;28;20040;-77
2021/08/25 10:32:32;;;;;;;22.42;7.30;;;;;;;37.49;26.71;97052.41;5054690;28;20277;-77
2021/08/25 10:35:17;;;;;;;14.43;7.63;;;;;;;36.04;28.51;97054.25;5075157;28;20472;-77
2021/08/25 10:37:44;;;;;;;64.28;10.40;;;;;;;34.99;30.56;97054.94;5056829;28;20028;-77
2021/08/25 10:40:10;;;;;;;15.88;7.75;;;;;;;35.13;30.38;97058.19;5040103;28;20166;-78
2021/08/25 10:42:53;;;;;;;14.27;7.43;;;;;;;35.00;30.55;97065.00;5056424;28;20104;-78
2021/08/25 10:45:41;;;;;;;11.52;6.85;;;;;;;34.13;31.65;97072.44;5056608;28;20093;-75
2021/08/25 10:48:10;;;;;;;12.63;7.05;;;;;;;33.43;32.56;97070.16;5054745;28;20048;-77
2021/08/25 10:50:52;;;;;;;12.52;7.28;;;;;;;32.67;33.76;97074.22;5047162;28;20107;-77
2021/08/25 10:53:27;;;;;;;14.05;7.88;;;;;;;32.01;34.78;97085.75;5073309;28;20043;-77
2021/08/25 10:56:13;;;;;;;10.75;7.97;;;;;;;31.93;35.03;97085.28;5074523;28;20115;-77
2021/08/25 10:58:51;;;;;;;11.98;7.85;;;;;;;31.52;35.05;97091.72;5055465;28;20104;-77
2021/08/25 11:01:30;;;;;;;13.15;8.70;;;;;;;30.86;36.02;97119.44;5072986;28;20476;-76
2021/08/25 11:04:04;;;;;;;13.35;7.22;;;;;;;29.89;37.78;97134.13;5035018;28;20024;-76
2021/08/25 11:06:41;;;;;;;33.65;8.18;;;;;;;29.44;39.28;97150.81;5053912;28;20040;-76
2021/08/25 11:09:30;;;;;;;30.52;8.68;;;;;;;29.17;40.04;97163.03;5056819;28;20049;-76
2021/08/25 11:11:56;;;;;;;44.40;9.23;;;;;;;28.99;42.33;97177.56;5074440;28;20051;-76
2021/08/25 11:14:24;;;;;;;49.05;20.13;;;;;;;28.64;46.12;97162.41;5073995;28;20114;-76
2021/08/25 11:16:51;;;;;;;100.38;13.63;;;;;;;28.35;49.10;97163.81;5074523;28;20033;-76
2021/08/25 11:19:28;;;;;;;37.45;11.82;;;;;;;28.32;50.52;97109.22;5040955;28;20031;-76
2021/08/25 11:21:54;;;;;;;32.42;11.80;;;;;;;28.53;51.28;97097.91;5055938;28;20020;-76
2021/08/25 11:24:20;;;;;;;34.25;12.10;;;;;;;28.89;51.15;97105.56;5056020;28;20487;-76